Time;durP1;ratioP1;P1;durP2;ratioP2;P2;SDS_P1;SDS_P2;PMS_P1;PMS_P2;Temp;Humidity;BMP_temperature;BMP_pressure;BME280_temperature;BME280_humidity;BME280_pressure;Samples;Min_cycle;Max_cycle;Signal;HPM_P1;HPM_P2
2021/03/28 00:00:24;;;;;;;3.35;1.9;;;;;;;6.72;51.52734;96408.26;;;;
2021/03/28 00:01:26;;;;;;;3.35;1.9;;;;;;;6.72;51.52734;96408.26;;;;
2021/03/28 00:02:36;;;;;;;3.35;1.9;;;;;;;6.72;51.52734;96408.26;;;;
2021/03/28 00:03:49;;;;;;;3.35;1.9;;;;;;;6.72;51.52734;96408.26;;;;
2021/03/28 00:04:58;;;;;;;3.35;1.9;;;;;;;6.72;51.52734;96408.26;;;;
2021/03/28 00:06:11;;;;;;;3.35;1.9;;;;;;;6.72;51.52734;96408.26;;;;
2021/03/28 00:07:26;;;;;;;3.35;1.9;;;;;;;6.72;51.52734;96408.26;;;;
2021/03/28 00:08:37;;;;;;;3.65;2.1;;;;;;;6.71;51.5791;96413.29;;;;
2021/03/28 00:09:41;;;;;;;3.65;2.1;;;;;;;6.71;51.5791;96413.29;;;;
2021/03/28 00:10:48;;;;;;;3.65;2.1;;;;;;;6.71;51.5791;96413.29;;;;
2021/03/28 00:11:52;;;;;;;3.65;2.1;;;;;;;6.71;51.5791;96413.29;;;;
2021/03/28 00:12:59;;;;;;;3.65;2.1;;;;;;;6.71;51.5791;96413.29;;;;
2021/03/28 00:14:05;;;;;;;3.65;2.1;;;;;;;6.71;51.5791;96413.29;;;;
2021/03/28 00:15:06;;;;;;;3.65;2.1;;;;;;;6.71;51.5791;96413.29;;;;
2021/03/28 00:16:19;;;;;;;3.65;2.1;;;;;;;6.71;51.5791;96413.29;;;;
2021/03/28 00:17:22;;;;;;;3.65;2.1;;;;;;;6.71;51.5791;96413.29;;;;
2021/03/28 00:18:30;;;;;;;3.65;2.1;;;;;;;6.71;51.5791;96413.29;;;;
2021/03/28 00:19:37;;;;;;;4.8;2.05;;;;;;;6.69;51.50391;96414.82;;;;
2021/03/28 00:20:39;;;;;;;4.8;2.05;;;;;;;6.69;51.50391;96414.82;;;;
2021/03/28 00:21:41;;;;;;;4.8;2.05;;;;;;;6.69;51.50391;96414.82;;;;
2021/03/28 00:22:47;;;;;;;4.8;2.05;;;;;;;6.69;51.50391;96414.82;;;;
2021/03/28 00:23:51;;;;;;;4.8;2.05;;;;;;;6.69;51.50391;96414.82;;;;
2021/03/28 00:24:55;;;;;;;4.8;2.05;;;;;;;6.69;51.50391;96414.82;;;;
2021/03/28 00:26:03;;;;;;;4.8;2.05;;;;;;;6.69;51.50391;96414.82;;;;
2021/03/28 00:27:20;;;;;;;4.8;2.05;;;;;;;6.69;51.50391;96414.82;;;;
2021/03/28 00:28:25;;;;;;;4.8;2.05;;;;;;;6.69;51.50391;96414.82;;;;
2021/03/28 00:29:38;;;;;;;4.8;2.05;;;;;;;6.69;51.50391;96414.82;;;;
2021/03/28 00:30:47;;;;;;;3.05;2;;;;;;;6.65;51.45508;96414.47;;;;
2021/03/28 00:31:49;;;;;;;3.05;2;;;;;;;6.65;51.45508;96414.47;;;;
2021/03/28 00:32:57;;;;;;;3.05;2;;;;;;;6.65;51.45508;96414.47;;;;
2021/03/28 00:34:02;;;;;;;3.05;2;;;;;;;6.65;51.45508;96414.47;;;;
2021/03/28 00:35:13;;;;;;;3.05;2;;;;;;;6.65;51.45508;96414.47;;;;
2021/03/28 00:36:17;;;;;;;3.05;2;;;;;;;6.65;51.45508;96414.47;;;;
2021/03/28 00:37:30;;;;;;;3.05;2;;;;;;;6.65;51.45508;96414.47;;;;
2021/03/28 00:38:31;;;;;;;3.05;2;;;;;;;6.65;51.45508;96414.47;;;;
2021/03/28 00:39:51;;;;;;;3.05;2;;;;;;;6.65;51.45508;96414.47;;;;
2021/03/28 00:40:54;;;;;;;4.249999;2;;;;;;;6.6;51.57617;96416.46;;;;
2021/03/28 00:42:12;;;;;;;4.249999;2;;;;;;;6.6;51.57617;96416.46;;;;
2021/03/28 00:43:31;;;;;;;4.249999;2;;;;;;;6.6;51.57617;96416.46;;;;
2021/03/28 00:44:42;;;;;;;4.249999;2;;;;;;;6.6;51.57617;96416.46;;;;
2021/03/28 00:45:48;;;;;;;4.249999;2;;;;;;;6.6;51.57617;96416.46;;;;
2021/03/28 00:46:53;;;;;;;4.249999;2;;;;;;;6.6;51.57617;96416.46;;;;
2021/03/28 00:47:57;;;;;;;4.249999;2;;;;;;;6.6;51.57617;96416.46;;;;
2021/03/28 00:49:06;;;;;;;4.249999;2;;;;;;;6.6;51.57617;96416.46;;;;
2021/03/28 00:50:09;;;;;;;4.249999;2;;;;;;;6.6;51.57617;96416.46;;;;
2021/03/28 00:51:29;;;;;;;4.4;2;;;;;;;6.54;51.76172;96415.84;;;;
2021/03/28 00:52:32;;;;;;;4.4;2;;;;;;;6.54;51.76172;96415.84;;;;
2021/03/28 00:53:36;;;;;;;4.4;2;;;;;;;6.54;51.76172;96415.84;;;;
2021/03/28 00:54:42;;;;;;;4.4;2;;;;;;;6.54;51.76172;96415.84;;;;
2021/03/28 00:55:46;;;;;;;4.4;2;;;;;;;6.54;51.76172;96415.84;;;;
2021/03/28 00:56:56;;;;;;;4.4;2;;;;;;;6.54;51.76172;96415.84;;;;
2021/03/28 00:57:58;;;;;;;4.4;2;;;;;;;6.54;51.76172;96415.84;;;;
2021/03/28 00:59:09;;;;;;;4.4;2;;;;;;;6.54;51.76172;96415.84;;;;
2021/03/28 01:00:17;;;;;;;4.4;2;;;;;;;6.54;51.76172;96415.84;;;;
2021/03/28 01:02:04;;;;;;;5.55;2.35;;;;;;;6.48;52.03223;96407.17;;;;
2021/03/28 01:03:13;;;;;;;5.55;2.35;;;;;;;6.48;52.03223;96407.17;;;;
2021/03/28 01:04:24;;;;;;;5.55;2.35;;;;;;;6.48;52.03223;96407.17;;;;
2021/03/28 01:05:37;;;;;;;5.55;2.35;;;;;;;6.48;52.03223;96407.17;;;;
2021/03/28 01:06:44;;;;;;;5.55;2.35;;;;;;;6.48;52.03223;96407.17;;;;
2021/03/28 01:07:49;;;;;;;5.55;2.35;;;;;;;6.48;52.03223;96407.17;;;;
2021/03/28 01:09:01;;;;;;;5.55;2.35;;;;;;;6.48;52.03223;96407.17;;;;
2021/03/28 01:10:13;;;;;;;5.55;2.35;;;;;;;6.48;52.03223;96407.17;;;;
2021/03/28 01:11:39;;;;;;;5.55;2.35;;;;;;;6.48;52.03223;96407.17;;;;
2021/03/28 01:17:19;;;;;;;4.250001;2.5;;;;;;;6.36;52.38184;96400.09;;;;
2021/03/28 01:18:35;;;;;;;4.250001;2.5;;;;;;;6.36;52.38184;96400.09;;;;
2021/03/28 01:19:42;;;;;;;4.250001;2.5;;;;;;;6.36;52.38184;96400.09;;;;
2021/03/28 01:21:59;;;;;;;4.250001;2.5;;;;;;;6.36;52.38184;96400.09;;;;
2021/03/28 01:23:06;;;;;;;4.05;2.1;;;;;;;6.25;52.84766;96393.41;;;;
2021/03/28 01:24:14;;;;;;;4.05;2.1;;;;;;;6.25;52.84766;96393.41;;;;
2021/03/28 01:25:30;;;;;;;4.05;2.1;;;;;;;6.25;52.84766;96393.41;;;;
2021/03/28 01:27:05;;;;;;;4.05;2.1;;;;;;;6.25;52.84766;96393.41;;;;
2021/03/28 01:28:18;;;;;;;4.05;2.1;;;;;;;6.25;52.84766;96393.41;;;;
2021/03/28 01:29:28;;;;;;;4.05;2.1;;;;;;;6.25;52.84766;96393.41;;;;
2021/03/28 01:30:37;;;;;;;4.05;2.1;;;;;;;6.25;52.84766;96393.41;;;;
2021/03/28 01:31:41;;;;;;;4.05;2.1;;;;;;;6.25;52.84766;96393.41;;;;
2021/03/28 01:32:50;;;;;;;4.05;2.1;;;;;;;6.25;52.84766;96393.41;;;;
2021/03/28 01:34:01;;;;;;;3.2;2.3;;;;;;;6.18;53.14746;96387.11;;;;
2021/03/28 01:35:16;;;;;;;3.2;2.3;;;;;;;6.18;53.14746;96387.11;;;;
2021/03/28 01:36:24;;;;;;;3.2;2.3;;;;;;;6.18;53.14746;96387.11;;;;
2021/03/28 01:37:33;;;;;;;3.2;2.3;;;;;;;6.18;53.14746;96387.11;;;;
2021/03/28 01:38:45;;;;;;;3.2;2.3;;;;;;;6.18;53.14746;96387.11;;;;
2021/03/28 01:39:58;;;;;;;3.2;2.3;;;;;;;6.18;53.14746;96387.11;;;;
2021/03/28 01:41:09;;;;;;;3.2;2.3;;;;;;;6.18;53.14746;96387.11;;;;
2021/03/28 01:42:13;;;;;;;3.2;2.3;;;;;;;6.18;53.14746;96387.11;;;;
2021/03/28 01:43:27;;;;;;;3.2;2.3;;;;;;;6.18;53.14746;96387.11;;;;
2021/03/28 01:44:40;;;;;;;3.7;2.25;;;;;;;6.1;53.39355;96368.82;;;;
2021/03/28 01:45:47;;;;;;;3.7;2.25;;;;;;;6.1;53.39355;96368.82;;;;
2021/03/28 01:46:57;;;;;;;3.7;2.25;;;;;;;6.1;53.39355;96368.82;;;;
2021/03/28 01:48:07;;;;;;;3.7;2.25;;;;;;;6.1;53.39355;96368.82;;;;
2021/03/28 01:49:20;;;;;;;3.7;2.25;;;;;;;6.1;53.39355;96368.82;;;;
2021/03/28 01:50:32;;;;;;;3.7;2.25;;;;;;;6.1;53.39355;96368.82;;;;
2021/03/28 01:51:45;;;;;;;3.7;2.25;;;;;;;6.1;53.39355;96368.82;;;;
2021/03/28 01:52:58;;;;;;;3.7;2.25;;;;;;;6.1;53.39355;96368.82;;;;
2021/03/28 01:54:13;;;;;;;3.7;2.25;;;;;;;6.1;53.39355;96368.82;;;;
2021/03/28 01:55:24;;;;;;;3.8;2.3;;;;;;;6.11;53.69238;96371;;;;
2021/03/28 01:56:33;;;;;;;3.8;2.3;;;;;;;6.11;53.69238;96371;;;;
2021/03/28 01:57:44;;;;;;;3.8;2.3;;;;;;;6.11;53.69238;96371;;;;
2021/03/28 01:58:56;;;;;;;3.8;2.3;;;;;;;6.11;53.69238;96371;;;;
2021/03/28 02:00:08;;;;;;;3.8;2.3;;;;;;;6.11;53.69238;96371;;;;
2021/03/28 02:01:26;;;;;;;3.8;2.3;;;;;;;6.11;53.69238;96371;;;;
2021/03/28 02:02:42;;;;;;;3.8;2.3;;;;;;;6.11;53.69238;96371;;;;
2021/03/28 02:03:53;;;;;;;3.8;2.3;;;;;;;6.11;53.69238;96371;;;;
2021/03/28 02:05:02;;;;;;;3.8;2.3;;;;;;;6.11;53.69238;96371;;;;
2021/03/28 02:06:16;;;;;;;4.4;2.1;;;;;;;6.07;53.90137;96366.09;;;;
2021/03/28 02:07:33;;;;;;;4.4;2.1;;;;;;;6.07;53.90137;96366.09;;;;
2021/03/28 02:09:00;;;;;;;4.4;2.1;;;;;;;6.07;53.90137;96366.09;;;;
2021/03/28 02:10:08;;;;;;;4.4;2.1;;;;;;;6.07;53.90137;96366.09;;;;
2021/03/28 02:11:20;;;;;;;4.4;2.1;;;;;;;6.07;53.90137;96366.09;;;;
2021/03/28 02:12:32;;;;;;;4.4;2.1;;;;;;;6.07;53.90137;96366.09;;;;
2021/03/28 02:13:41;;;;;;;4.4;2.1;;;;;;;6.07;53.90137;96366.09;;;;
2021/03/28 02:15:07;;;;;;;4.4;2.1;;;;;;;6.07;53.90137;96366.09;;;;
2021/03/28 02:16:24;;;;;;;2.8;2.2;;;;;;;5.99;54.06055;96365.77;;;;
2021/03/28 02:17:32;;;;;;;2.8;2.2;;;;;;;5.99;54.06055;96365.77;;;;
2021/03/28 02:18:48;;;;;;;2.8;2.2;;;;;;;5.99;54.06055;96365.77;;;;
2021/03/28 02:20:08;;;;;;;2.8;2.2;;;;;;;5.99;54.06055;96365.77;;;;
2021/03/28 02:21:16;;;;;;;2.8;2.2;;;;;;;5.99;54.06055;96365.77;;;;
2021/03/28 02:22:26;;;;;;;2.8;2.2;;;;;;;5.99;54.06055;96365.77;;;;
2021/03/28 02:23:32;;;;;;;2.8;2.2;;;;;;;5.99;54.06055;96365.77;;;;
2021/03/28 02:24:44;;;;;;;2.8;2.2;;;;;;;5.99;54.06055;96365.77;;;;
2021/03/28 02:25:56;;;;;;;2.8;2.2;;;;;;;5.99;54.06055;96365.77;;;;
2021/03/28 02:27:05;;;;;;;4.450001;2.4;;;;;;;5.89;54.13379;96369.11;;;;
2021/03/28 02:28:12;;;;;;;4.450001;2.4;;;;;;;5.89;54.13379;96369.11;;;;
2021/03/28 02:29:22;;;;;;;4.450001;2.4;;;;;;;5.89;54.13379;96369.11;;;;
2021/03/28 02:30:30;;;;;;;4.450001;2.4;;;;;;;5.89;54.13379;96369.11;;;;
2021/03/28 02:31:35;;;;;;;4.450001;2.4;;;;;;;5.89;54.13379;96369.11;;;;
2021/03/28 02:32:52;;;;;;;4.450001;2.4;;;;;;;5.89;54.13379;96369.11;;;;
2021/03/28 02:34:09;;;;;;;4.450001;2.4;;;;;;;5.89;54.13379;96369.11;;;;
2021/03/28 02:35:19;;;;;;;4.450001;2.4;;;;;;;5.89;54.13379;96369.11;;;;
2021/03/28 02:36:58;;;;;;;4.450001;2.4;;;;;;;5.89;54.13379;96369.11;;;;
2021/03/28 02:38:07;;;;;;;4.7;2.25;;;;;;;5.73;54.31738;96358.49;;;;
2021/03/28 02:39:17;;;;;;;4.7;2.25;;;;;;;5.73;54.31738;96358.49;;;;
2021/03/28 02:40:25;;;;;;;4.7;2.25;;;;;;;5.73;54.31738;96358.49;;;;
2021/03/28 02:41:40;;;;;;;4.7;2.25;;;;;;;5.73;54.31738;96358.49;;;;
2021/03/28 02:42:52;;;;;;;4.7;2.25;;;;;;;5.73;54.31738;96358.49;;;;
2021/03/28 02:44:01;;;;;;;4.7;2.25;;;;;;;5.73;54.31738;96358.49;;;;
2021/03/28 02:45:18;;;;;;;4.7;2.25;;;;;;;5.73;54.31738;96358.49;;;;
2021/03/28 02:46:22;;;;;;;4.7;2.25;;;;;;;5.73;54.31738;96358.49;;;;
2021/03/28 02:47:38;;;;;;;4.7;2.25;;;;;;;5.73;54.31738;96358.49;;;;
2021/03/28 02:49:00;;;;;;;3.850001;2.55;;;;;;;5.46;54.62305;96356.84;;;;
2021/03/28 02:50:12;;;;;;;3.850001;2.55;;;;;;;5.46;54.62305;96356.84;;;;
2021/03/28 02:51:34;;;;;;;3.850001;2.55;;;;;;;5.46;54.62305;96356.84;;;;
2021/03/28 02:52:52;;;;;;;3.850001;2.55;;;;;;;5.46;54.62305;96356.84;;;;
2021/03/28 02:54:08;;;;;;;3.850001;2.55;;;;;;;5.46;54.62305;96356.84;;;;
2021/03/28 02:55:30;;;;;;;3.850001;2.55;;;;;;;5.46;54.62305;96356.84;;;;
2021/03/28 02:56:42;;;;;;;3.850001;2.55;;;;;;;5.46;54.62305;96356.84;;;;
2021/03/28 02:57:56;;;;;;;3.850001;2.55;;;;;;;5.46;54.62305;96356.84;;;;
2021/03/28 02:59:09;;;;;;;3.449999;2;;;;;;;5.08;55.04102;96360.85;;;;
2021/03/28 03:00:24;;;;;;;3.449999;2;;;;;;;5.08;55.04102;96360.85;;;;
2021/03/28 03:01:32;;;;;;;3.449999;2;;;;;;;5.08;55.04102;96360.85;;;;
2021/03/28 03:02:42;;;;;;;3.449999;2;;;;;;;5.08;55.04102;96360.85;;;;
2021/03/28 03:04:04;;;;;;;3.449999;2;;;;;;;5.08;55.04102;96360.85;;;;
2021/03/28 03:05:16;;;;;;;3.449999;2;;;;;;;5.08;55.04102;96360.85;;;;
2021/03/28 03:06:31;;;;;;;3.449999;2;;;;;;;5.08;55.04102;96360.85;;;;
2021/03/28 03:07:46;;;;;;;3.449999;2;;;;;;;5.08;55.04102;96360.85;;;;
2021/03/28 03:08:59;;;;;;;3.449999;2;;;;;;;5.08;55.04102;96360.85;;;;
2021/03/28 03:10:09;;;;;;;2.65;2;;;;;;;4.74;55.51953;96369.64;;;;
2021/03/28 03:11:27;;;;;;;2.65;2;;;;;;;4.74;55.51953;96369.64;;;;
2021/03/28 03:13:01;;;;;;;2.65;2;;;;;;;4.74;55.51953;96369.64;;;;
2021/03/28 03:14:13;;;;;;;2.65;2;;;;;;;4.74;55.51953;96369.64;;;;
2021/03/28 03:15:34;;;;;;;2.65;2;;;;;;;4.74;55.51953;96369.64;;;;
2021/03/28 03:16:37;;;;;;;2.65;2;;;;;;;4.74;55.51953;96369.64;;;;
2021/03/28 03:18:01;;;;;;;2.65;2;;;;;;;4.74;55.51953;96369.64;;;;
2021/03/28 03:24:37;;;;;;;4.4;2.15;;;;;;;4.41;55.8584;96364.06;;;;
2021/03/28 03:26:12;;;;;;;4.4;2.15;;;;;;;4.41;55.8584;96364.06;;;;
2021/03/28 03:31:38;;;;;;;2.45;2;;;;;;;4.03;56.24316;96362.55;;;;
2021/03/28 03:32:54;;;;;;;2.45;2;;;;;;;4.03;56.24316;96362.55;;;;
2021/03/28 03:38:33;;;;;;;2.45;2;;;;;;;4.03;56.24316;96362.55;;;;
2021/03/28 03:39:48;;;;;;;2.45;2;;;;;;;4.03;56.24316;96362.55;;;;
2021/03/28 03:41:06;;;;;;;2.45;2;;;;;;;4.03;56.24316;96362.55;;;;
2021/03/28 03:42:18;;;;;;;4.099999;2.25;;;;;;;3.71;56.5293;96377.7;;;;
2021/03/28 03:43:39;;;;;;;4.099999;2.25;;;;;;;3.71;56.5293;96377.7;;;;
2021/03/28 03:44:57;;;;;;;4.099999;2.25;;;;;;;3.71;56.5293;96377.7;;;;
2021/03/28 03:46:42;;;;;;;4.099999;2.25;;;;;;;3.71;56.5293;96377.7;;;;
2021/03/28 03:47:53;;;;;;;4.099999;2.25;;;;;;;3.71;56.5293;96377.7;;;;
2021/03/28 03:49:01;;;;;;;4.099999;2.25;;;;;;;3.71;56.5293;96377.7;;;;
2021/03/28 03:50:17;;;;;;;4.099999;2.25;;;;;;;3.71;56.5293;96377.7;;;;
2021/03/28 03:51:27;;;;;;;4.099999;2.25;;;;;;;3.71;56.5293;96377.7;;;;
2021/03/28 03:52:40;;;;;;;5.1;2.2;;;;;;;3.36;56.54785;96389.12;;;;
2021/03/28 03:54:00;;;;;;;5.1;2.2;;;;;;;3.36;56.54785;96389.12;;;;
2021/03/28 03:55:03;;;;;;;5.1;2.2;;;;;;;3.36;56.54785;96389.12;;;;
2021/03/28 03:56:15;;;;;;;5.1;2.2;;;;;;;3.36;56.54785;96389.12;;;;
2021/03/28 03:57:23;;;;;;;5.1;2.2;;;;;;;3.36;56.54785;96389.12;;;;
2021/03/28 03:58:34;;;;;;;5.1;2.2;;;;;;;3.36;56.54785;96389.12;;;;
2021/03/28 03:59:43;;;;;;;5.1;2.2;;;;;;;3.36;56.54785;96389.12;;;;
2021/03/28 04:00:54;;;;;;;5.1;2.2;;;;;;;3.36;56.54785;96389.12;;;;
2021/03/28 04:02:09;;;;;;;5.1;2.2;;;;;;;3.36;56.54785;96389.12;;;;
2021/03/28 04:03:18;;;;;;;2.55;1.95;;;;;;;3.01;56.74512;96388.45;;;;
2021/03/28 04:04:28;;;;;;;2.55;1.95;;;;;;;3.01;56.74512;96388.45;;;;
2021/03/28 04:05:44;;;;;;;2.55;1.95;;;;;;;3.01;56.74512;96388.45;;;;
2021/03/28 04:06:58;;;;;;;2.55;1.95;;;;;;;3.01;56.74512;96388.45;;;;
2021/03/28 04:08:18;;;;;;;2.55;1.95;;;;;;;3.01;56.74512;96388.45;;;;
2021/03/28 04:09:34;;;;;;;2.55;1.95;;;;;;;3.01;56.74512;96388.45;;;;
2021/03/28 04:10:45;;;;;;;2.55;1.95;;;;;;;3.01;56.74512;96388.45;;;;
2021/03/28 04:12:02;;;;;;;2.55;1.95;;;;;;;3.01;56.74512;96388.45;;;;
2021/03/28 04:13:20;;;;;;;2.55;1.95;;;;;;;3.01;56.74512;96388.45;;;;
2021/03/28 04:14:37;;;;;;;3.3;1.9;;;;;;;2.7;56.93555;96393.58;;;;
2021/03/28 04:16:05;;;;;;;3.3;1.9;;;;;;;2.7;56.93555;96393.58;;;;
2021/03/28 04:17:23;;;;;;;3.3;1.9;;;;;;;2.7;56.93555;96393.58;;;;
2021/03/28 04:18:39;;;;;;;3.3;1.9;;;;;;;2.7;56.93555;96393.58;;;;
2021/03/28 04:19:54;;;;;;;3.3;1.9;;;;;;;2.7;56.93555;96393.58;;;;
2021/03/28 04:21:05;;;;;;;3.3;1.9;;;;;;;2.7;56.93555;96393.58;;;;
2021/03/28 04:22:16;;;;;;;3.3;1.9;;;;;;;2.7;56.93555;96393.58;;;;
2021/03/28 04:23:36;;;;;;;3.3;1.9;;;;;;;2.7;56.93555;96393.58;;;;
2021/03/28 04:24:54;;;;;;;3.6;1.8;;;;;;;2.33;57.04395;96395.74;;;;
2021/03/28 04:26:05;;;;;;;3.6;1.8;;;;;;;2.33;57.04395;96395.74;;;;
2021/03/28 04:27:18;;;;;;;3.6;1.8;;;;;;;2.33;57.04395;96395.74;;;;
2021/03/28 04:28:36;;;;;;;3.6;1.8;;;;;;;2.33;57.04395;96395.74;;;;
2021/03/28 04:29:47;;;;;;;3.6;1.8;;;;;;;2.33;57.04395;96395.74;;;;
2021/03/28 04:30:50;;;;;;;3.6;1.8;;;;;;;2.33;57.04395;96395.74;;;;
2021/03/28 04:32:09;;;;;;;3.6;1.8;;;;;;;2.33;57.04395;96395.74;;;;
2021/03/28 04:33:24;;;;;;;3.6;1.8;;;;;;;2.33;57.04395;96395.74;;;;
2021/03/28 04:34:38;;;;;;;3.6;1.8;;;;;;;2.33;57.04395;96395.74;;;;
2021/03/28 04:35:53;;;;;;;3.8;1.95;;;;;;;1.99;57.31641;96398.8;;;;
2021/03/28 04:37:06;;;;;;;3.8;1.95;;;;;;;1.99;57.31641;96398.8;;;;
2021/03/28 04:38:24;;;;;;;3.8;1.95;;;;;;;1.99;57.31641;96398.8;;;;
2021/03/28 04:39:42;;;;;;;3.8;1.95;;;;;;;1.99;57.31641;96398.8;;;;
2021/03/28 04:45:11;;;;;;;3.8;1.95;;;;;;;1.99;57.31641;96398.8;;;;
2021/03/28 04:50:17;;;;;;;3.7;1.7;;;;;;;1.82;57.54395;96407.74;;;;
2021/03/28 04:51:49;;;;;;;3.7;1.7;;;;;;;1.82;57.54395;96407.74;;;;
2021/03/28 04:53:20;;;;;;;3.7;1.7;;;;;;;1.82;57.54395;96407.74;;;;
2021/03/28 04:54:44;;;;;;;3.7;1.7;;;;;;;1.82;57.54395;96407.74;;;;
2021/03/28 04:56:10;;;;;;;3.7;1.7;;;;;;;1.82;57.54395;96407.74;;;;
2021/03/28 04:57:32;;;;;;;4.65;1.8;;;;;;;1.65;57.44824;96420.08;;;;
2021/03/28 04:58:49;;;;;;;4.65;1.8;;;;;;;1.65;57.44824;96420.08;;;;
2021/03/28 05:00:13;;;;;;;4.65;1.8;;;;;;;1.65;57.44824;96420.08;;;;
2021/03/28 05:01:38;;;;;;;4.65;1.8;;;;;;;1.65;57.44824;96420.08;;;;
2021/03/28 05:02:53;;;;;;;4.65;1.8;;;;;;;1.65;57.44824;96420.08;;;;
2021/03/28 05:04:16;;;;;;;4.65;1.8;;;;;;;1.65;57.44824;96420.08;;;;
2021/03/28 05:05:34;;;;;;;4.65;1.8;;;;;;;1.65;57.44824;96420.08;;;;
2021/03/28 05:06:44;;;;;;;4.65;1.8;;;;;;;1.65;57.44824;96420.08;;;;
2021/03/28 05:07:58;;;;;;;3.8;1.7;;;;;;;1.49;57.47949;96428.83;;;;
2021/03/28 05:09:25;;;;;;;3.8;1.7;;;;;;;1.49;57.47949;96428.83;;;;
2021/03/28 05:10:49;;;;;;;3.8;1.7;;;;;;;1.49;57.47949;96428.83;;;;
2021/03/28 05:12:08;;;;;;;3.8;1.7;;;;;;;1.49;57.47949;96428.83;;;;
2021/03/28 05:13:33;;;;;;;3.8;1.7;;;;;;;1.49;57.47949;96428.83;;;;
2021/03/28 05:15:02;;;;;;;3.8;1.7;;;;;;;1.49;57.47949;96428.83;;;;
2021/03/28 05:16:34;;;;;;;3.8;1.7;;;;;;;1.49;57.47949;96428.83;;;;
2021/03/28 05:17:56;;;;;;;4.25;1.85;;;;;;;1.4;57.53125;96446.55;;;;
2021/03/28 05:19:29;;;;;;;4.25;1.85;;;;;;;1.4;57.53125;96446.55;;;;
2021/03/28 05:21:16;;;;;;;4.25;1.85;;;;;;;1.4;57.53125;96446.55;;;;
2021/03/28 05:22:39;;;;;;;4.25;1.85;;;;;;;1.4;57.53125;96446.55;;;;
2021/03/28 05:24:00;;;;;;;4.25;1.85;;;;;;;1.4;57.53125;96446.55;;;;
2021/03/28 05:29:38;;;;;;;3.7;1.85;;;;;;;1.48;57.56152;96457.73;;;;
2021/03/28 05:31:00;;;;;;;3.7;1.85;;;;;;;1.48;57.56152;96457.73;;;;
2021/03/28 05:32:59;;;;;;;3.7;1.85;;;;;;;1.48;57.56152;96457.73;;;;
2021/03/28 05:34:29;;;;;;;3.7;1.85;;;;;;;1.48;57.56152;96457.73;;;;
2021/03/28 05:43:54;;;;;;;3.65;1.6;;;;;;;1.8;57.58496;96463.78;;;;
2021/03/28 05:45:14;;;;;;;3.65;1.6;;;;;;;1.8;57.58496;96463.78;;;;
2021/03/28 05:46:45;;;;;;;3.65;1.6;;;;;;;1.8;57.58496;96463.78;;;;
2021/03/28 05:48:17;;;;;;;3.65;1.6;;;;;;;1.8;57.58496;96463.78;;;;
2021/03/28 05:53:38;;;;;;;5.400001;1.9;;;;;;;2.5;57.18262;96473.47;;;;
2021/03/28 05:54:59;;;;;;;5.400001;1.9;;;;;;;2.5;57.18262;96473.47;;;;
2021/03/28 05:56:19;;;;;;;5.400001;1.9;;;;;;;2.5;57.18262;96473.47;;;;
2021/03/28 05:58:10;;;;;;;5.400001;1.9;;;;;;;2.5;57.18262;96473.47;;;;
2021/03/28 05:59:24;;;;;;;5.400001;1.9;;;;;;;2.5;57.18262;96473.47;;;;
2021/03/28 06:00:44;;;;;;;3.65;1.8;;;;;;;3.13;56.77051;96493.02;;;;
2021/03/28 06:02:06;;;;;;;3.65;1.8;;;;;;;3.13;56.77051;96493.02;;;;
2021/03/28 06:03:27;;;;;;;3.65;1.8;;;;;;;3.13;56.77051;96493.02;;;;
2021/03/28 06:05:16;;;;;;;3.65;1.8;;;;;;;3.13;56.77051;96493.02;;;;
2021/03/28 06:10:46;;;;;;;3.65;1.8;;;;;;;3.13;56.77051;96493.02;;;;
2021/03/28 06:16:02;;;;;;;3.85;1.7;;;;;;;3.54;56.58105;96495.76;;;;
2021/03/28 06:17:16;;;;;;;3.85;1.7;;;;;;;3.54;56.58105;96495.76;;;;
2021/03/28 06:18:23;;;;;;;3.85;1.7;;;;;;;3.54;56.58105;96495.76;;;;
2021/03/28 06:19:51;;;;;;;3.85;1.7;;;;;;;3.54;56.58105;96495.76;;;;
2021/03/28 06:21:12;;;;;;;3.85;1.7;;;;;;;3.54;56.58105;96495.76;;;;
2021/03/28 06:26:59;;;;;;;4.649999;1.7;;;;;;;3.88;56.57422;96511.19;;;;
2021/03/28 06:28:31;;;;;;;4.649999;1.7;;;;;;;3.88;56.57422;96511.19;;;;
2021/03/28 06:30:18;;;;;;;4.649999;1.7;;;;;;;3.88;56.57422;96511.19;;;;
2021/03/28 06:32:11;;;;;;;4.649999;1.7;;;;;;;3.88;56.57422;96511.19;;;;
2021/03/28 06:33:32;;;;;;;2.85;1.7;;;;;;;4.42;56.3252;96518.64;;;;
2021/03/28 06:35:02;;;;;;;2.85;1.7;;;;;;;4.42;56.3252;96518.64;;;;
2021/03/28 06:36:48;;;;;;;2.85;1.7;;;;;;;4.42;56.3252;96518.64;;;;
2021/03/28 06:42:16;;;;;;;2.85;1.7;;;;;;;4.42;56.3252;96518.64;;;;
2021/03/28 06:43:50;;;;;;;3.5;1.6;;;;;;;5.03;55.73633;96528.24;;;;
2021/03/28 06:45:39;;;;;;;3.5;1.6;;;;;;;5.03;55.73633;96528.24;;;;
2021/03/28 06:46:55;;;;;;;3.5;1.6;;;;;;;5.03;55.73633;96528.24;;;;
2021/03/28 06:48:16;;;;;;;3.5;1.6;;;;;;;5.03;55.73633;96528.24;;;;
2021/03/28 06:53:50;;;;;;;1.9;1.6;;;;;;;5.77;55.35449;96542.52;;;;
2021/03/28 06:59:15;;;;;;;1.9;1.6;;;;;;;5.77;55.35449;96542.52;;;;
2021/03/28 07:00:34;;;;;;;1.9;1.6;;;;;;;5.77;55.35449;96542.52;;;;
2021/03/28 07:01:54;;;;;;;1.9;1.6;;;;;;;5.77;55.35449;96542.52;;;;
2021/03/28 07:03:13;;;;;;;1.9;1.6;;;;;;;5.77;55.35449;96542.52;;;;
2021/03/28 07:06:26;;;;;;;5.149999;2.2;;;;;;;7.13;54.45117;96552.2;;;;
2021/03/28 07:07:36;;;;;;;5.149999;2.2;;;;;;;7.13;54.45117;96552.2;;;;
2021/03/28 07:09:15;;;;;;;5.149999;2.2;;;;;;;7.13;54.45117;96552.2;;;;
2021/03/28 07:10:39;;;;;;;5.149999;2.2;;;;;;;7.13;54.45117;96552.2;;;;
2021/03/28 07:11:54;;;;;;;5.149999;2.2;;;;;;;7.13;54.45117;96552.2;;;;
2021/03/28 07:13:00;;;;;;;5.149999;2.2;;;;;;;7.13;54.45117;96552.2;;;;
2021/03/28 07:14:18;;;;;;;5.149999;2.2;;;;;;;7.13;54.45117;96552.2;;;;
2021/03/28 07:15:45;;;;;;;5.25;2.1;;;;;;;8.55;53.44043;96562.39;;;;
2021/03/28 07:17:01;;;;;;;5.25;2.1;;;;;;;8.55;53.44043;96562.39;;;;
2021/03/28 07:22:39;;;;;;;5.25;2.1;;;;;;;8.55;53.44043;96562.39;;;;
2021/03/28 07:23:56;;;;;;;5.25;2.1;;;;;;;8.55;53.44043;96562.39;;;;
2021/03/28 07:25:23;;;;;;;5.25;2.1;;;;;;;8.55;53.44043;96562.39;;;;
2021/03/28 07:27:06;;;;;;;3.8;1.95;;;;;;;9.98;52.25;96562.19;;;;
2021/03/28 07:28:38;;;;;;;3.8;1.95;;;;;;;9.98;52.25;96562.19;;;;
2021/03/28 07:34:05;;;;;;;3.8;1.95;;;;;;;9.98;52.25;96562.19;;;;
2021/03/28 07:39:36;;;;;;;3.7;1.9;;;;;;;11.17;50.88184;96548.77;;;;
2021/03/28 07:40:56;;;;;;;3.7;1.9;;;;;;;11.17;50.88184;96548.77;;;;
2021/03/28 07:42:14;;;;;;;3.7;1.9;;;;;;;11.17;50.88184;96548.77;;;;
2021/03/28 07:43:38;;;;;;;3.7;1.9;;;;;;;11.17;50.88184;96548.77;;;;
2021/03/28 07:46:03;;;;;;;3.7;1.9;;;;;;;11.17;50.88184;96548.77;;;;
2021/03/28 07:47:55;;;;;;;3.6;1.75;;;;;;;14.37;47.27637;96559.39;;;;
2021/03/28 07:49:17;;;;;;;3.6;1.75;;;;;;;14.37;47.27637;96559.39;;;;
2021/03/28 07:50:51;;;;;;;3.6;1.75;;;;;;;14.37;47.27637;96559.39;;;;
2021/03/28 07:52:35;;;;;;;3.6;1.75;;;;;;;14.37;47.27637;96559.39;;;;
2021/03/28 07:58:00;;;;;;;5.999999;2.55;;;;;;;17.93;43.34473;96560.64;;;;
2021/03/28 07:59:25;;;;;;;5.999999;2.55;;;;;;;17.93;43.34473;96560.64;;;;
2021/03/28 08:00:44;;;;;;;5.999999;2.55;;;;;;;17.93;43.34473;96560.64;;;;
2021/03/28 08:06:12;;;;;;;5.999999;2.55;;;;;;;17.93;43.34473;96560.64;;;;
2021/03/28 08:07:24;;;;;;;5.999999;2.55;;;;;;;17.93;43.34473;96560.64;;;;
2021/03/28 08:09:06;;;;;;;4.5;2.35;;;;;;;19.86;41.59277;96547.94;;;;
2021/03/28 08:10:26;;;;;;;4.5;2.35;;;;;;;19.86;41.59277;96547.94;;;;
2021/03/28 08:11:37;;;;;;;4.5;2.35;;;;;;;19.86;41.59277;96547.94;;;;
2021/03/28 08:13:05;;;;;;;4.5;2.35;;;;;;;19.86;41.59277;96547.94;;;;
2021/03/28 08:15:20;;;;;;;4.5;2.35;;;;;;;19.86;41.59277;96547.94;;;;
2021/03/28 08:16:36;;;;;;;4.5;2.35;;;;;;;19.86;41.59277;96547.94;;;;
2021/03/28 08:21:51;;;;;;;4.9;2.55;;;;;;;20.61;40.33496;96548.95;;;;
2021/03/28 08:22:57;;;;;;;4.9;2.55;;;;;;;20.61;40.33496;96548.95;;;;
2021/03/28 08:24:17;;;;;;;4.9;2.55;;;;;;;20.61;40.33496;96548.95;;;;
2021/03/28 08:29:34;;;;;;;4.9;2.55;;;;;;;20.61;40.33496;96548.95;;;;
2021/03/28 08:30:53;;;;;;;5.8;2.7;;;;;;;23.89;36.48633;96549.5;;;;
2021/03/28 08:32:06;;;;;;;5.8;2.7;;;;;;;23.89;36.48633;96549.5;;;;
2021/03/28 08:33:23;;;;;;;5.8;2.7;;;;;;;23.89;36.48633;96549.5;;;;
2021/03/28 08:34:51;;;;;;;5.8;2.7;;;;;;;23.89;36.48633;96549.5;;;;
2021/03/28 08:36:06;;;;;;;5.8;2.7;;;;;;;23.89;36.48633;96549.5;;;;
2021/03/28 08:37:27;;;;;;;5.8;2.7;;;;;;;23.89;36.48633;96549.5;;;;
2021/03/28 08:38:39;;;;;;;5.8;2.7;;;;;;;23.89;36.48633;96549.5;;;;
2021/03/28 08:40:01;;;;;;;5.8;2.7;;;;;;;23.89;36.48633;96549.5;;;;
2021/03/28 08:45:14;;;;;;;4.699999;2.5;;;;;;;24.71;35.24609;96556.59;;;;
2021/03/28 08:46:25;;;;;;;4.699999;2.5;;;;;;;24.71;35.24609;96556.59;;;;
2021/03/28 08:47:50;;;;;;;4.699999;2.5;;;;;;;24.71;35.24609;96556.59;;;;
2021/03/28 08:49:16;;;;;;;4.699999;2.5;;;;;;;24.71;35.24609;96556.59;;;;
2021/03/28 08:50:24;;;;;;;4.699999;2.5;;;;;;;24.71;35.24609;96556.59;;;;
2021/03/28 08:51:35;;;;;;;5.100001;2.1;;;;;;;24.54;34.41699;96552.04;;;;
2021/03/28 08:52:57;;;;;;;5.100001;2.1;;;;;;;24.54;34.41699;96552.04;;;;
2021/03/28 08:54:21;;;;;;;5.100001;2.1;;;;;;;24.54;34.41699;96552.04;;;;
2021/03/28 08:55:34;;;;;;;5.100001;2.1;;;;;;;24.54;34.41699;96552.04;;;;
2021/03/28 08:57:21;;;;;;;5.100001;2.1;;;;;;;24.54;34.41699;96552.04;;;;
2021/03/28 08:58:36;;;;;;;5.100001;2.1;;;;;;;24.54;34.41699;96552.04;;;;
2021/03/28 08:59:46;;;;;;;5.100001;2.1;;;;;;;24.54;34.41699;96552.04;;;;
2021/03/28 09:01:02;;;;;;;5.100001;2.1;;;;;;;24.54;34.41699;96552.04;;;;
2021/03/28 09:02:08;;;;;;;3.85;2;;;;;;;25.64;32.79688;96550.78;;;;
2021/03/28 09:03:21;;;;;;;3.85;2;;;;;;;25.64;32.79688;96550.78;;;;
2021/03/28 09:04:52;;;;;;;3.85;2;;;;;;;25.64;32.79688;96550.78;;;;
2021/03/28 09:06:13;;;;;;;3.85;2;;;;;;;25.64;32.79688;96550.78;;;;
2021/03/28 09:07:18;;;;;;;3.85;2;;;;;;;25.64;32.79688;96550.78;;;;
2021/03/28 09:08:40;;;;;;;3.85;2;;;;;;;25.64;32.79688;96550.78;;;;